Terminal Aerodrome Forecast
Issued by NWS

Home | Current Version | Previous Version | Text Only | Print | Product List | Glossary On
Versions: 1 2 3 4 5 6 7 8 9 10 11 12
000
FTUS42 TJSJ 291750
TAFJPS
TAF
TJPS 291750Z 2918/3018 17008G15KT P6SM FEW030 BKN060
     FM292200 09005KT P6SM VCTS SCT025CB BKN040 OVC100
     FM300000 03002KT P6SM OVC050
     FM301400 16009KT P6SM VCSH SCT020 BKN250
      AMD NOT SKED TIL 300300=

USA.gov is the U.S. government's official web portal to all federal, state and local government web resources and services.